Time;durP1;ratioP1;P1;durP2;ratioP2;P2;SDS_P1;SDS_P2;PMS_P1;PMS_P2;Temp;Humidity;BMP_temperature;BMP_pressure;BME280_temperature;BME280_humidity;BME280_pressure;Samples;Min_cycle;Max_cycle;Signal;HPM_P1;HPM_P2
2022/09/24 03:01:44;;;;;;;2.05;1.50;;;19.80;46.20;;;;;;5318486;23;45870;-65
2022/09/24 03:04:10;;;;;;;1.50;1.40;;;19.80;46.30;;;;;;4925578;28;45236;-61
2022/09/24 03:06:35;;;;;;;2.10;1.40;;;19.80;46.30;;;;;;4913807;28;46165;-63
2022/09/24 03:09:02;;;;;;;2.65;1.92;;;19.80;46.30;;;;;;4935130;28;45334;-62
2022/09/24 03:11:30;;;;;;;1.70;1.45;;;19.80;46.30;;;;;;4919499;28;45948;-62
2022/09/24 03:13:55;;;;;;;1.48;1.20;;;19.80;46.30;;;;;;4908541;28;45294;-62
2022/09/24 03:16:21;;;;;;;2.08;1.73;;;19.80;46.30;;;;;;4930675;28;45305;-62
2022/09/24 03:18:47;;;;;;;1.88;1.63;;;19.80;46.30;;;;;;4920666;28;45526;-61
2022/09/24 03:21:13;;;;;;;1.80;1.60;;;19.80;46.30;;;;;;4930833;28;46297;-61
2022/09/24 03:23:39;;;;;;;1.42;1.33;;;19.80;46.30;;;;;;4929639;28;45098;-61
2022/09/24 03:26:04;;;;;;;1.60;1.35;;;19.80;46.30;;;;;;4928870;28;45609;-62
2022/09/24 03:28:30;;;;;;;2.45;1.45;;;19.80;46.30;;;;;;4931760;28;45475;-62
2022/09/24 03:30:58;;;;;;;1.60;1.20;;;19.80;46.30;;;;;;4929175;28;46078;-63
2022/09/24 03:33:34;;;;;;;2.25;1.63;;;19.80;46.30;;;;;;4922213;28;45477;-61
2022/09/24 03:36:02;;;;;;;1.33;1.23;;;19.80;46.30;;;;;;4931782;28;45348;-62
2022/09/24 03:38:28;;;;;;;2.10;1.70;;;19.80;46.30;;;;;;4929361;28;45464;-60
2022/09/24 03:40:54;;;;;;;1.80;1.55;;;19.80;46.30;;;;;;4930053;28;46213;-62
2022/09/24 03:43:20;;;;;;;1.65;1.33;;;19.80;46.30;;;;;;4931445;28;46257;-62
2022/09/24 03:45:45;;;;;;;2.05;1.85;;;19.80;46.30;;;;;;4930949;28;45348;-64
2022/09/24 03:48:11;;;;;;;2.00;1.50;;;19.80;46.30;;;;;;4930436;28;46114;-61
2022/09/24 03:50:37;;;;;;;2.38;1.60;;;19.80;46.40;;;;;;4930814;28;46137;-62
2022/09/24 03:53:02;;;;;;;1.65;1.50;;;19.70;46.30;;;;;;4933420;28;45637;-62
2022/09/24 03:55:28;;;;;;;1.60;1.40;;;19.80;46.40;;;;;;4932738;28;45337;-61
2022/09/24 03:57:54;;;;;;;1.80;1.33;;;19.70;46.40;;;;;;4916316;28;45739;-62
2022/09/24 04:00:19;;;;;;;2.15;1.63;;;19.70;46.40;;;;;;4930517;28;46432;-62
2022/09/24 04:02:45;;;;;;;2.22;1.58;;;19.70;46.40;;;;;;4931095;28;46170;-62
2022/09/24 04:05:11;;;;;;;2.30;1.80;;;19.70;46.30;;;;;;4931157;28;45667;-62
2022/09/24 04:07:36;;;;;;;1.33;1.17;;;19.70;46.30;;;;;;4934555;28;45482;-61
2022/09/24 04:10:02;;;;;;;1.45;1.35;;;19.70;46.30;;;;;;4927860;28;46276;-63
2022/09/24 04:12:28;;;;;;;1.52;1.30;;;19.70;46.30;;;;;;4924627;28;45085;-61
2022/09/24 04:14:54;;;;;;;1.52;1.40;;;19.70;46.30;;;;;;4927079;28;45448;-62
2022/09/24 04:17:19;;;;;;;1.67;1.42;;;19.70;46.30;;;;;;4928760;28;44852;-62
2022/09/24 04:19:45;;;;;;;2.05;1.52;;;19.70;46.30;;;;;;4926921;28;46889;-62
2022/09/24 04:22:10;;;;;;;1.50;1.13;;;19.70;46.40;;;;;;4923307;28;45305;-61
2022/09/24 04:24:36;;;;;;;1.48;1.38;;;19.70;46.30;;;;;;4928911;28;45466;-61
2022/09/24 04:27:02;;;;;;;1.90;1.70;;;19.70;46.40;;;;;;4925901;28;45608;-62
2022/09/24 04:29:27;;;;;;;1.85;1.30;;;19.70;46.40;;;;;;4928336;28;46069;-61
2022/09/24 04:31:53;;;;;;;1.30;1.20;;;19.70;46.30;;;;;;4926878;28;45763;-60
2022/09/24 04:34:19;;;;;;;1.73;1.38;;;19.70;46.40;;;;;;4928249;28;45517;-62
2022/09/24 04:36:45;;;;;;;1.20;1.10;;;19.70;46.40;;;;;;4925189;28;45388;-62
2022/09/24 04:39:11;;;;;;;1.50;1.40;;;19.70;46.30;;;;;;4927637;28;45920;-61
2022/09/24 04:41:37;;;;;;;1.50;1.40;;;19.70;46.30;;;;;;4925870;28;45423;-59
2022/09/24 04:44:04;;;;;;;1.70;1.40;;;19.70;46.40;;;;;;4926964;28;46506;-63
2022/09/24 04:46:33;;;;;;;5.72;1.48;;;19.70;46.40;;;;;;4910892;28;45695;-61
2022/09/24 04:48:58;;;;;;;1.67;1.30;;;19.70;47.00;;;;;;4927137;28;45958;-61
2022/09/24 04:51:24;;;;;;;2.72;1.65;;;19.70;46.40;;;;;;4927625;28;45391;-61
2022/09/24 04:53:49;;;;;;;1.70;1.42;;;19.70;46.40;;;;;;4926597;28;45824;-62
2022/09/24 04:56:15;;;;;;;1.35;1.25;;;19.80;46.40;;;;;;4927279;28;45386;-60
2022/09/24 04:58:41;;;;;;;1.48;1.30;;;19.70;46.30;;;;;;4926158;28;45969;-63
2022/09/24 05:01:06;;;;;;;1.25;1.15;;;19.70;46.30;;;;;;4924943;28;46276;-64
2022/09/24 05:03:32;;;;;;;2.88;1.38;;;19.80;46.30;;;;;;4911658;28;45874;-61
2022/09/24 05:05:58;;;;;;;5.93;1.58;;;19.80;46.30;;;;;;4909178;28;45730;-61
2022/09/24 05:08:23;;;;;;;4.07;1.75;;;19.80;46.30;;;;;;4926914;28;46076;-61
2022/09/24 05:10:49;;;;;;;2.30;1.73;;;19.80;46.40;;;;;;4925261;28;45287;-62
2022/09/24 05:13:15;;;;;;;1.90;1.35;;;19.80;46.40;;;;;;4921708;28;44731;-61
2022/09/24 05:15:40;;;;;;;1.83;1.45;;;19.70;46.40;;;;;;4918832;28;45335;-62
2022/09/24 05:18:06;;;;;;;1.65;1.45;;;19.70;46.40;;;;;;4907936;28;47184;-62
2022/09/24 05:20:32;;;;;;;1.98;1.65;;;19.70;46.40;;;;;;4926512;28;45303;-61
2022/09/24 05:22:57;;;;;;;3.38;1.50;;;19.70;46.40;;;;;;4926551;28;45265;-62
2022/09/24 05:25:23;;;;;;;3.60;1.80;;;19.70;46.40;;;;;;4924358;28;44782;-61
2022/09/24 05:27:50;;;;;;;2.25;1.67;;;19.70;46.50;;;;;;4926228;28;45865;-62
2022/09/24 05:30:16;;;;;;;1.95;1.38;;;19.70;46.50;;;;;;4926100;28;45589;-62
2022/09/24 05:32:42;;;;;;;1.33;1.23;;;19.70;46.50;;;;;;4924995;28;45705;-62
2022/09/24 05:35:08;;;;;;;2.25;1.70;;;19.70;46.50;;;;;;4925087;28;44951;-63
2022/09/24 05:37:37;;;;;;;2.63;1.90;;;19.70;46.50;;;;;;4924631;28;46325;-62
2022/09/24 05:42:47;;;;;;;1.67;1.58;;;19.70;46.60;;;;;;4926080;28;45726;-62
2022/09/24 05:45:16;;;;;;;2.33;1.65;;;19.70;46.60;;;;;;4908433;28;46188;-62
2022/09/24 05:47:45;;;;;;;1.70;1.58;;;19.70;46.60;;;;;;4924641;28;46128;-61
2022/09/24 05:50:11;;;;;;;2.38;1.33;;;19.70;46.50;;;;;;4923900;28;45811;-62
2022/09/24 05:52:41;;;;;;;3.25;1.60;;;19.70;46.50;;;;;;4924781;28;45299;-60
2022/09/24 05:55:08;;;;;;;1.98;1.48;;;19.70;46.50;;;;;;4903781;28;45170;-62
2022/09/24 05:57:34;;;;;;;2.25;1.77;;;19.70;46.50;;;;;;4920136;28;46164;-62
2022/09/24 06:00:00;;;;;;;2.70;1.83;;;19.70;46.50;;;;;;4923513;28;45412;-62
2022/09/24 06:02:25;;;;;;;1.98;1.70;;;19.70;46.50;;;;;;4923660;28;45082;-62
2022/09/24 06:04:51;;;;;;;3.13;1.80;;;19.70;46.50;;;;;;4925625;28;45366;-61
2022/09/24 06:07:16;;;;;;;1.70;1.40;;;19.70;46.50;;;;;;4923501;28;46627;-61
2022/09/24 06:09:43;;;;;;;2.35;1.40;;;19.70;46.50;;;;;;4924876;28;46166;-61
2022/09/24 06:12:09;;;;;;;1.88;1.58;;;19.70;46.50;;;;;;4922734;28;45718;-61
2022/09/24 06:14:35;;;;;;;1.85;1.55;;;19.70;46.50;;;;;;4923551;28;45744;-61
2022/09/24 06:17:01;;;;;;;2.70;1.52;;;19.70;46.50;;;;;;4922634;28;47127;-61
2022/09/24 06:19:26;;;;;;;1.88;1.65;;;19.70;46.50;;;;;;4922725;28;45608;-61
2022/09/24 06:21:52;;;;;;;2.55;1.55;;;19.70;46.50;;;;;;4925742;28;44742;-62
2022/09/24 06:24:17;;;;;;;1.65;1.35;;;19.70;46.50;;;;;;4927769;28;45648;-62
2022/09/24 06:26:43;;;;;;;3.67;1.52;;;19.70;46.50;;;;;;4927235;28;47016;-62
2022/09/24 06:29:08;;;;;;;3.60;1.63;;;19.70;46.50;;;;;;4928636;28;45848;-62
2022/09/24 06:31:34;;;;;;;2.47;1.80;;;19.70;46.50;;;;;;4926232;28;46291;-62
2022/09/24 06:34:01;;;;;;;2.00;1.48;;;19.70;46.50;;;;;;4928537;28;45661;-62
2022/09/24 06:36:27;;;;;;;3.10;1.77;;;19.70;46.50;;;;;;4928511;28;46287;-63
2022/09/24 06:38:52;;;;;;;4.35;1.98;;;19.70;46.40;;;;;;4927347;28;45678;-61
2022/09/24 06:41:18;;;;;;;2.13;1.70;;;19.70;46.50;;;;;;4928191;28;45362;-61
2022/09/24 06:43:44;;;;;;;1.98;1.70;;;19.70;46.40;;;;;;4929908;28;45735;-61
2022/09/24 06:46:10;;;;;;;1.83;1.65;;;19.70;46.40;;;;;;4928769;28;46160;-61
2022/09/24 06:48:37;;;;;;;2.25;1.65;;;19.70;46.40;;;;;;4929909;28;45670;-62
2022/09/24 06:51:06;;;;;;;1.88;1.50;;;19.70;46.40;;;;;;4926659;28;44780;-62
2022/09/24 06:53:32;;;;;;;1.70;1.40;;;19.70;46.40;;;;;;4927687;28;46209;-62
2022/09/24 06:55:58;;;;;;;1.80;1.50;;;19.70;46.40;;;;;;4929429;28;46582;-62
2022/09/24 06:58:24;;;;;;;1.65;1.30;;;19.70;46.40;;;;;;4928480;28;45339;-62
2022/09/24 07:01:01;;;;;;;1.65;1.40;;;19.70;46.40;;;;;;4928175;28;45619;-61
2022/09/24 07:03:28;;;;;;;1.50;1.40;;;19.70;46.40;;;;;;4913317;28;45831;-62
2022/09/24 07:05:54;;;;;;;2.03;1.40;;;19.70;46.50;;;;;;4928533;28;45272;-62
2022/09/24 07:08:19;;;;;;;1.50;1.40;;;19.70;46.40;;;;;;4929166;28;44853;-61
2022/09/24 07:10:46;;;;;;;1.70;1.58;;;19.70;46.40;;;;;;4929413;28;45890;-61
2022/09/24 07:13:12;;;;;;;2.88;1.50;;;19.70;46.50;;;;;;4928917;28;44830;-61
2022/09/24 07:15:38;;;;;;;1.80;1.38;;;19.70;46.50;;;;;;4928425;28;45894;-61
2022/09/24 07:18:04;;;;;;;1.75;1.40;;;19.70;46.50;;;;;;4928317;28;44740;-62
2022/09/24 07:20:29;;;;;;;1.77;1.50;;;19.70;46.40;;;;;;4928693;28;45373;-62
2022/09/24 07:22:55;;;;;;;2.38;1.67;;;19.70;46.40;;;;;;4928316;28;44927;-62
2022/09/24 07:25:21;;;;;;;2.25;1.50;;;19.70;46.30;;;;;;4928694;28;46112;-62
2022/09/24 07:27:47;;;;;;;1.77;1.27;;;19.80;46.30;;;;;;4923622;28;45688;-62
2022/09/24 07:30:12;;;;;;;2.03;1.42;;;19.80;46.30;;;;;;4927584;28;46145;-61
2022/09/24 07:32:38;;;;;;;1.90;1.50;;;19.80;46.30;;;;;;4928031;28;46055;-61
2022/09/24 07:35:04;;;;;;;1.77;1.50;;;19.80;46.20;;;;;;4928903;28;45357;-61
2022/09/24 07:37:32;;;;;;;1.40;1.23;;;19.80;46.20;;;;;;4912085;28;45883;-62
2022/09/24 07:39:58;;;;;;;1.52;1.42;;;19.80;46.20;;;;;;4929135;28;46342;-61
2022/09/24 07:42:24;;;;;;;1.70;1.50;;;19.80;46.20;;;;;;4928488;28;46139;-61
2022/09/24 07:44:50;;;;;;;2.03;1.45;;;19.80;46.30;;;;;;4927391;28;46827;-62
2022/09/24 07:47:16;;;;;;;2.17;1.58;;;19.80;46.30;;;;;;4911614;28;45689;-62
2022/09/24 07:49:42;;;;;;;1.60;1.50;;;19.80;46.80;;;;;;4926625;28;46191;-63
2022/09/24 07:52:09;;;;;;;2.47;1.70;;;19.80;46.20;;;;;;4925422;28;45733;-62
2022/09/24 07:54:34;;;;;;;2.03;1.60;;;19.80;46.10;;;;;;4926968;28;47037;-61
2022/09/24 07:57:01;;;;;;;2.10;1.58;;;19.90;46.10;;;;;;4925882;28;44773;-62
2022/09/24 07:59:27;;;;;;;3.50;1.42;;;19.90;46.10;;;;;;4922694;28;45589;-61
2022/09/24 08:01:53;;;;;;;1.33;1.15;;;19.90;46.00;;;;;;4926045;28;45569;-62
2022/09/24 08:04:18;;;;;;;2.50;1.40;;;19.90;46.00;;;;;;4926690;28;45916;-63
2022/09/24 08:06:44;;;;;;;2.92;1.55;;;19.90;45.90;;;;;;4922939;28;45400;-61
2022/09/24 08:09:10;;;;;;;1.80;1.40;;;19.90;45.90;;;;;;4925280;28;45608;-62
2022/09/24 08:11:36;;;;;;;1.52;1.40;;;20.00;46.00;;;;;;4913141;28;45713;-62
2022/09/24 08:14:01;;;;;;;1.63;1.45;;;19.90;46.00;;;;;;4921706;28;46255;-61
2022/09/24 08:16:27;;;;;;;1.45;1.10;;;19.90;46.00;;;;;;4922563;28;45524;-61
2022/09/24 08:18:53;;;;;;;1.67;1.27;;;19.90;46.00;;;;;;4925731;28;45922;-61
2022/09/24 08:21:19;;;;;;;1.33;1.20;;;19.90;46.10;;;;;;4924771;28;45296;-61
2022/09/24 08:23:45;;;;;;;1.90;1.50;;;19.90;46.10;;;;;;4926069;28;46121;-61
2022/09/24 08:26:11;;;;;;;1.55;1.45;;;19.90;46.10;;;;;;4924991;28;46102;-62
2022/09/24 08:28:36;;;;;;;1.50;1.20;;;19.90;46.00;;;;;;4919822;28;45420;-62
2022/09/24 08:31:08;;;;;;;2.85;1.63;;;19.90;46.10;;;;;;4918795;28;45938;-63
2022/09/24 08:33:34;;;;;;;1.40;1.30;;;19.90;46.10;;;;;;4906689;28;45727;-62
2022/09/24 08:36:01;;;;;;;1.40;1.30;;;19.90;46.10;;;;;;4915695;28;45354;-62
2022/09/24 08:38:26;;;;;;;1.40;1.30;;;19.90;46.10;;;;;;4909515;28;45920;-62
2022/09/24 08:40:58;;;;;;;2.13;1.55;;;19.90;46.10;;;;;;4920415;28;45768;-61
2022/09/24 08:43:36;;;;;;;1.92;1.50;;;19.90;46.00;;;;;;4922098;28;45903;-61
2022/09/24 08:49:29;;;;;;;1.88;1.58;;;20.00;45.90;;;;;;4919231;28;45617;-62
2022/09/24 08:52:14;;;;;;;1.45;1.20;;;20.00;45.90;;;;;;4920536;28;45755;-61
2022/09/24 08:54:39;;;;;;;1.60;1.20;;;20.10;45.80;;;;;;4903476;28;46116;-61
2022/09/24 08:57:13;;;;;;;1.90;1.67;;;20.00;45.80;;;;;;4903513;28;45285;-62
2022/09/24 08:59:42;;;;;;;2.03;1.52;;;20.10;45.80;;;;;;4885369;28;45814;-62
2022/09/24 09:02:14;;;;;;;1.67;1.08;;;20.10;45.80;;;;;;4888410;28;45322;-62
2022/09/24 09:04:53;;;;;;;1.90;1.40;;;20.10;45.80;;;;;;4907333;28;46100;-62
2022/09/24 09:07:43;;;;;;;1.52;1.42;;;20.10;45.70;;;;;;4924210;28;45294;-62
2022/09/24 09:10:14;;;;;;;1.75;1.40;;;20.10;45.70;;;;;;4907069;28;45367;-62
2022/09/24 09:12:51;;;;;;;1.60;1.38;;;20.10;45.70;;;;;;4887848;28;45476;-63
2022/09/24 09:15:28;;;;;;;2.00;1.60;;;20.10;45.70;;;;;;4903376;28;46245;-62
2022/09/24 09:18:04;;;;;;;1.88;1.40;;;20.10;45.70;;;;;;4892626;28;45588;-62
2022/09/24 09:20:45;;;;;;;1.50;1.40;;;20.10;45.80;;;;;;4923470;28;45309;-61
2022/09/24 09:23:16;;;;;;;1.38;1.27;;;20.10;45.80;;;;;;4920300;28;46286;-63
2022/09/24 09:25:51;;;;;;;1.30;1.20;;;20.10;45.70;;;;;;4902277;28;46093;-62
2022/09/24 09:28:17;;;;;;;1.30;1.20;;;20.10;45.80;;;;;;4890435;28;45350;-62
2022/09/24 09:30:55;;;;;;;1.92;1.52;;;20.10;46.40;;;;;;4922876;28;44822;-63
2022/09/24 09:33:36;;;;;;;1.80;1.45;;;20.10;45.70;;;;;;4907110;28;45286;-62
2022/09/24 09:36:01;;;;;;;2.17;1.50;;;20.10;46.20;;;;;;4923896;28;46272;-61
2022/09/24 09:38:42;;;;;;;1.48;1.20;;;20.10;45.80;;;;;;4924530;28;45452;-61
2022/09/24 09:41:33;;;;;;;2.70;1.30;;;20.10;45.70;;;;;;4906289;28;45291;-62
2022/09/24 09:44:14;;;;;;;1.38;1.10;;;20.10;45.70;;;;;;4920150;28;46490;-61
2022/09/24 09:46:45;;;;;;;1.27;1.17;;;20.10;45.70;;;;;;4877113;28;46323;-63
2022/09/24 09:49:11;;;;;;;1.27;1.15;;;20.10;45.80;;;;;;4893165;28;45480;-64
2022/09/24 09:51:38;;;;;;;1.40;1.30;;;20.10;45.80;;;;;;4891506;28;45747;-62
2022/09/24 09:54:04;;;;;;;2.38;1.33;;;20.10;45.80;;;;;;4918774;28;45803;-62
2022/09/24 09:56:35;;;;;;;1.80;1.10;;;20.10;45.70;;;;;;4898570;28;46926;-60
2022/09/24 09:59:21;;;;;;;2.88;1.50;;;20.20;45.80;;;;;;4922725;28;45880;-61
2022/09/24 10:01:48;;;;;;;1.65;1.42;;;20.20;45.70;;;;;;4923152;28;45371;-61
2022/09/24 10:04:27;;;;;;;1.80;1.50;;;20.10;45.70;;;;;;4917664;28;46226;-62
2022/09/24 10:07:06;;;;;;;1.52;1.15;;;20.20;45.70;;;;;;4902325;28;45993;-62
2022/09/24 10:09:31;;;;;;;1.67;1.30;;;20.20;45.70;;;;;;4924578;28;45322;-62
2022/09/24 10:12:08;;;;;;;1.48;1.38;;;20.20;45.70;;;;;;4904901;28;45650;-63
2022/09/24 10:14:33;;;;;;;1.65;1.30;;;20.20;45.70;;;;;;4920484;28;45810;-61
2022/09/24 10:17:04;;;;;;;1.45;1.33;;;20.20;45.80;;;;;;4923471;28;46273;-61
2022/09/24 10:19:31;;;;;;;1.23;1.10;;;20.20;45.70;;;;;;4923204;28;45548;-62
2022/09/24 10:21:56;;;;;;;1.35;1.25;;;20.20;45.70;;;;;;4900436;28;45362;-62
2022/09/24 10:24:26;;;;;;;1.48;1.38;;;20.20;45.60;;;;;;4907481;28;46272;-61
2022/09/24 10:26:51;;;;;;;1.52;1.33;;;20.20;45.60;;;;;;4905826;28;46257;-62
2022/09/24 10:32:18;;;;;;;1.40;1.30;;;20.20;45.60;;;;;;4928031;28;45625;-62
2022/09/24 10:34:57;;;;;;;1.50;1.35;;;20.20;45.60;;;;;;4908718;28;45143;-61
2022/09/24 10:37:22;;;;;;;1.80;1.35;;;20.20;45.50;;;;;;4925447;28;46031;-62
2022/09/24 10:39:58;;;;;;;1.40;1.10;;;20.20;45.60;;;;;;4924461;28;46201;-63
2022/09/24 10:42:25;;;;;;;1.33;1.23;;;20.30;45.50;;;;;;4926500;28;45300;-62
2022/09/24 10:44:52;;;;;;;1.63;1.40;;;20.30;45.50;;;;;;4925804;28;45254;-60
2022/09/24 10:47:26;;;;;;;1.48;1.30;;;20.30;45.50;;;;;;4909026;28;46477;-62
2022/09/24 10:50:16;;;;;;;1.35;1.10;;;20.30;45.60;;;;;;4892677;28;45575;-61
2022/09/24 10:52:48;;;;;;;1.35;1.25;;;20.30;45.50;;;;;;4907953;28;45430;-63
2022/09/24 10:55:44;;;;;;;1.70;1.42;;;20.30;45.50;;;;;;4926764;28;45472;-60
2022/09/24 10:58:32;;;;;;;1.10;1.00;;;20.30;45.50;;;;;;4922451;28;45413;-61
2022/09/24 11:01:03;;;;;;;1.38;1.27;;;20.30;45.50;;;;;;4923034;28;45681;-61
2022/09/24 11:03:38;;;;;;;1.20;1.10;;;20.30;45.50;;;;;;4927780;28;45408;-62
2022/09/24 11:06:17;;;;;;;2.92;1.23;;;20.30;45.50;;;;;;4923818;28;46119;-62
2022/09/24 11:09:01;;;;;;;1.63;1.52;;;20.30;45.50;;;;;;4923808;28;45290;-62
2022/09/24 11:12:00;;;;;;;1.20;1.00;;;20.30;46.10;;;;;;4924468;28;45517;-62
2022/09/24 11:14:45;;;;;;;1.20;1.10;;;20.30;45.50;;;;;;4920115;28;45573;-61
2022/09/24 11:17:26;;;;;;;1.20;1.10;;;20.30;45.50;;;;;;4907160;28;44683;-62
2022/09/24 11:20:04;;;;;;;1.25;1.15;;;20.30;45.50;;;;;;4912425;28;47138;-57
2022/09/24 11:22:49;;;;;;;1.30;1.20;;;20.30;45.50;;;;;;4926484;28;45232;-61
2022/09/24 11:26:06;;;;;;;1.20;1.10;;;20.30;45.40;;;;;;4922559;28;44667;-61
2022/09/24 11:28:40;;;;;;;1.60;1.13;;;20.30;45.40;;;;;;4868455;28;45193;-59
2022/09/24 11:31:24;;;;;;;1.30;1.05;;;20.30;45.50;;;;;;4923513;28;46875;-61
2022/09/24 11:34:09;;;;;;;;;;;20.30;45.50;;;;;;4927288;28;45376;-60
2022/09/24 11:36:44;;;;;;;1.10;0.98;;;20.30;45.50;;;;;;4925298;28;45750;-60
2022/09/24 11:39:28;;;;;;;1.35;1.10;;;20.30;45.50;;;;;;4923474;28;45810;-61
2022/09/24 11:42:03;;;;;;;1.15;1.05;;;20.30;45.50;;;;;;4902204;28;45449;-61
2022/09/24 11:45:10;;;;;;;1.50;1.27;;;20.30;45.50;;;;;;4917377;28;46588;-61
2022/09/24 11:48:10;;;;;;;0.85;0.85;;;20.30;45.40;;;;;;4911491;28;45133;-60
2022/09/24 11:50:39;;;;;;;1.85;1.45;;;20.30;45.50;;;;;;4920908;28;45661;-61
2022/09/24 11:53:13;;;;;;;1.65;1.10;;;20.30;45.50;;;;;;4909315;28;46260;-61
2022/09/24 11:55:41;;;;;;;;;;;20.30;45.40;;;;;;4892740;28;45318;-61
2022/09/24 11:58:14;;;;;;;1.25;1.08;;;20.30;45.50;;;;;;4923244;28;45822;-61
2022/09/24 12:00:44;;;;;;;1.40;1.20;;;20.30;45.50;;;;;;4906778;28;45440;-61
2022/09/24 12:03:17;;;;;;;1.30;1.20;;;20.30;45.50;;;;;;4923538;28;46045;-61
2022/09/24 12:05:48;;;;;;;1.40;1.17;;;20.30;45.40;;;;;;4923238;28;45564;-62
2022/09/24 12:08:33;;;;;;;1.40;1.30;;;20.40;45.50;;;;;;4917024;28;46433;-62
2022/09/24 12:11:06;;;;;;;1.35;1.25;;;20.40;45.50;;;;;;4885682;28;46334;-61
2022/09/24 12:13:52;;;;;;;1.15;1.02;;;20.40;45.50;;;;;;4920997;28;45351;-61
2022/09/24 12:16:21;;;;;;;1.77;1.20;;;20.40;45.40;;;;;;4915207;28;45743;-61
2022/09/24 12:19:00;;;;;;;1.42;1.08;;;20.40;45.50;;;;;;4885358;28;45575;-62
2022/09/24 12:21:34;;;;;;;1.40;1.13;;;20.40;45.50;;;;;;4899857;28;44975;-61
2022/09/24 12:24:02;;;;;;;1.25;1.08;;;20.40;45.40;;;;;;4901436;28;46097;-61
2022/09/24 12:26:29;;;;;;;1.70;1.27;;;20.40;45.40;;;;;;4899726;28;45672;-62
2022/09/24 12:34:56;;;;;;;1.25;1.15;;;20.40;45.40;;;;;;4918494;28;45900;-62
2022/09/24 12:37:24;;;;;;;1.20;1.10;;;20.40;45.40;;;;;;4893953;28;45264;-60
2022/09/24 12:40:41;;;;;;;1.20;1.10;;;20.40;45.40;;;;;;4891139;28;46555;-61
2022/09/24 12:43:17;;;;;;;1.25;1.15;;;20.40;45.40;;;;;;4887170;28;45274;-61
2022/09/24 12:45:42;;;;;;;4.93;1.20;;;20.40;45.40;;;;;;4924153;28;45912;-60
2022/09/24 12:48:13;;;;;;;1.48;1.17;;;20.40;45.40;;;;;;4923831;28;45830;-61
2022/09/24 12:50:38;;;;;;;2.05;1.33;;;20.40;45.40;;;;;;4889502;28;45381;-61
2022/09/24 12:53:23;;;;;;;1.60;1.23;;;20.40;45.40;;;;;;4923201;28;45339;-61
2022/09/24 12:55:48;;;;;;;1.42;1.17;;;20.40;45.40;;;;;;4909025;28;46328;-62
2022/09/24 12:58:44;;;;;;;1.48;1.17;;;20.40;45.50;;;;;;4906880;28;45318;-61
2022/09/24 13:01:29;;;;;;;1.42;1.20;;;20.40;45.40;;;;;;4894222;28;45416;-62
2022/09/24 13:04:01;;;;;;;1.33;1.13;;;20.40;45.50;;;;;;4926691;28;44761;-61
2022/09/24 13:06:33;;;;;;;1.25;1.00;;;20.40;45.50;;;;;;4925695;28;45717;-61
2022/09/24 13:08:59;;;;;;;1.17;1.08;;;20.40;45.50;;;;;;4925905;28;46133;-62
2022/09/24 13:11:32;;;;;;;2.90;1.08;;;20.40;45.50;;;;;;4924041;28;45282;-63
2022/09/24 13:14:14;;;;;;;;;;;20.40;45.50;;;;;;4927203;28;45191;-61
2022/09/24 13:16:40;;;;;;;1.08;0.98;;;20.40;45.40;;;;;;4927917;28;46447;-62
2022/09/24 13:19:26;;;;;;;1.70;1.10;;;20.40;45.40;;;;;;4908965;28;45735;-62
2022/09/24 13:21:55;;;;;;;1.10;1.00;;;20.40;45.30;;;;;;4926234;28;44796;-61
2022/09/24 13:24:43;;;;;;;1.20;1.13;;;20.50;45.40;;;;;;4910429;28;45580;-61
2022/09/24 13:27:29;;;;;;;1.30;1.10;;;20.40;45.40;;;;;;4926271;28;47136;-61
2022/09/24 13:30:21;;;;;;;1.27;1.17;;;20.40;45.40;;;;;;4923900;28;45820;-61
2022/09/24 13:32:53;;;;;;;1.50;1.10;;;20.50;45.40;;;;;;4926079;28;45750;-62
2022/09/24 13:35:21;;;;;;;1.27;1.10;;;20.40;45.40;;;;;;4925761;28;45368;-60
2022/09/24 13:37:53;;;;;;;1.20;1.10;;;20.50;45.40;;;;;;4924534;28;46235;-61
2022/09/24 13:40:22;;;;;;;1.20;1.10;;;20.50;45.50;;;;;;4923692;28;45800;-62
2022/09/24 13:43:11;;;;;;;1.63;1.35;;;20.50;45.50;;;;;;4904656;28;44878;-62
2022/09/24 13:45:40;;;;;;;1.13;0.95;;;20.50;45.40;;;;;;4906246;28;45370;-61
2022/09/24 13:48:17;;;;;;;1.15;1.05;;;20.50;45.40;;;;;;4910038;28;46271;-61
2022/09/24 13:50:45;;;;;;;1.20;1.10;;;20.50;44.90;;;;;;4926770;28;47077;-62
2022/09/24 13:53:16;;;;;;;1.30;1.20;;;20.50;45.40;;;;;;4897503;28;45593;-62
2022/09/24 13:55:44;;;;;;;1.50;1.40;;;20.50;45.40;;;;;;4912507;28;45510;-62
2022/09/24 13:58:37;;;;;;;1.40;1.30;;;20.50;45.40;;;;;;4911030;28;47132;-61
2022/09/24 14:01:04;;;;;;;1.17;1.00;;;20.50;45.40;;;;;;4915841;28;46216;-61
2022/09/24 14:03:34;;;;;;;1.33;1.05;;;20.50;45.40;;;;;;4922958;28;45334;-61
2022/09/24 14:06:00;;;;;;;1.20;1.10;;;20.50;45.40;;;;;;4925388;28;45632;-62
2022/09/24 14:08:26;;;;;;;1.50;1.20;;;20.50;45.50;;;;;;4925582;28;46038;-60
2022/09/24 14:11:02;;;;;;;1.42;1.33;;;20.50;45.40;;;;;;4926632;28;45523;-61
2022/09/24 14:13:28;;;;;;;1.13;0.88;;;20.50;45.40;;;;;;4925460;28;44703;-61
2022/09/24 14:16:07;;;;;;;1.35;0.95;;;20.50;45.40;;;;;;4926994;28;45680;-61
2022/09/24 14:18:32;;;;;;;1.05;0.95;;;20.50;45.40;;;;;;4928039;28;46230;-61
2022/09/24 14:21:06;;;;;;;1.40;1.30;;;20.50;45.40;;;;;;4925789;28;45768;-62
2022/09/24 14:23:52;;;;;;;1.92;0.90;;;20.50;45.40;;;;;;4912856;28;45976;-62
2022/09/24 14:26:30;;;;;;;1.80;1.30;;;20.50;45.40;;;;;;4927548;28;44788;-61
2022/09/24 14:28:56;;;;;;;1.30;1.10;;;20.50;45.50;;;;;;4926268;28;46234;-62
2022/09/24 14:31:22;;;;;;;1.55;1.25;;;20.40;45.60;;;;;;4926109;28;45338;-62
2022/09/24 14:33:47;;;;;;;1.10;1.00;;;20.40;45.60;;;;;;4925057;28;46216;-62
2022/09/24 14:36:13;;;;;;;1.50;0.98;;;20.40;45.60;;;;;;4923280;28;45625;-61
2022/09/24 14:39:02;;;;;;;1.23;1.00;;;20.40;45.50;;;;;;4927251;28;47031;-62
2022/09/24 14:41:29;;;;;;;1.70;1.08;;;20.40;45.50;;;;;;4918532;28;45709;-61
2022/09/24 14:44:02;;;;;;;1.20;1.10;;;20.40;45.60;;;;;;4913379;28;45465;-62
2022/09/24 14:46:35;;;;;;;1.10;0.93;;;20.40;45.60;;;;;;4928689;28;45713;-61
2022/09/24 14:49:05;;;;;;;1.40;1.30;;;20.40;45.60;;;;;;4930486;28;46129;-62
2022/09/24 14:51:31;;;;;;;1.17;1.08;;;20.40;45.60;;;;;;4928987;28;45370;-61
2022/09/24 14:54:02;;;;;;;1.60;1.20;;;20.40;45.70;;;;;;4926756;28;44746;-61
2022/09/24 14:56:30;;;;;;;1.30;1.10;;;20.40;45.60;;;;;;4927703;28;45313;-62
2022/09/24 14:58:56;;;;;;;1.17;1.05;;;20.40;45.70;;;;;;4927582;28;46203;-61
2022/09/24 15:01:23;;;;;;;1.67;1.05;;;20.40;45.70;;;;;;4914451;28;46062;-61
2022/09/24 15:04:22;;;;;;;1.70;1.42;;;20.40;45.60;;;;;;4929055;28;45710;-61
2022/09/24 15:06:47;;;;;;;1.30;1.10;;;20.40;45.60;;;;;;4906110;28;45689;-60
2022/09/24 15:09:22;;;;;;;1.38;0.90;;;20.40;45.70;;;;;;4930670;28;46088;-61
2022/09/24 15:11:48;;;;;;;1.17;0.90;;;20.40;45.60;;;;;;4928921;28;44698;-61
2022/09/24 15:14:18;;;;;;;1.52;1.10;;;20.40;45.60;;;;;;4929470;28;45558;-62
2022/09/24 15:16:45;;;;;;;1.33;1.23;;;20.40;45.60;;;;;;4928902;28;45352;-62
2022/09/24 15:19:27;;;;;;;1.50;1.30;;;20.40;45.60;;;;;;4907493;28;47013;-62
2022/09/24 15:21:55;;;;;;;1.45;1.17;;;20.40;45.60;;;;;;4929139;28;45519;-61
2022/09/24 15:24:21;;;;;;;1.08;1.00;;;20.40;45.60;;;;;;4928274;28;45855;-62
2022/09/24 15:26:48;;;;;;;1.35;1.00;;;20.40;45.60;;;;;;4927766;28;45267;-61
2022/09/24 15:29:19;;;;;;;0.98;0.90;;;20.40;45.60;;;;;;4927877;28;46929;-62
2022/09/24 15:31:45;;;;;;;1.10;1.00;;;20.50;45.60;;;;;;4926961;28;45321;-61
2022/09/24 15:34:11;;;;;;;0.93;0.90;;;20.40;45.60;;;;;;4929456;28;45760;-61
2022/09/24 15:36:37;;;;;;;1.02;0.90;;;20.50;45.60;;;;;;4910764;28;45847;-62
2022/09/24 15:39:03;;;;;;;1.10;1.00;;;20.50;45.60;;;;;;4929234;28;47937;-60
2022/09/24 15:41:28;;;;;;;1.20;1.10;;;20.50;45.60;;;;;;4914598;28;45647;-60
2022/09/24 15:43:57;;;;;;;1.50;1.15;;;20.50;45.60;;;;;;4929934;28;45420;-62
2022/09/24 15:46:23;;;;;;;1.20;1.00;;;20.50;45.60;;;;;;4930554;28;44825;-61
2022/09/24 15:48:48;;;;;;;0.80;0.77;;;20.40;45.60;;;;;;4923168;28;46109;-60
2022/09/24 15:51:16;;;;;;;1.20;1.10;;;20.50;45.60;;;;;;4930909;23;45443;-62
2022/09/24 15:53:41;;;;;;;1.20;1.10;;;20.50;45.60;;;;;;4878026;28;44899;-61
2022/09/24 15:56:07;;;;;;;0.95;0.93;;;20.50;45.60;;;;;;4920571;28;46198;-60
2022/09/24 15:58:33;;;;;;;0.95;0.82;;;20.50;45.60;;;;;;4919435;28;47110;-62
2022/09/24 16:00:59;;;;;;;3.40;1.05;;;20.50;45.50;;;;;;4893373;28;45047;-60
2022/09/24 16:03:26;;;;;;;0.95;0.90;;;20.50;45.50;;;;;;4904376;28;46563;-61
2022/09/24 16:05:51;;;;;;;1.10;1.00;;;20.50;45.60;;;;;;4917453;28;45860;-60
2022/09/24 16:08:17;;;;;;;1.10;1.00;;;20.50;45.50;;;;;;4921927;28;46142;-61
2022/09/24 16:10:42;;;;;;;1.20;1.10;;;20.50;45.50;;;;;;4917960;28;45287;-61
2022/09/24 16:13:09;;;;;;;0.80;0.80;;;20.50;45.50;;;;;;4892751;28;45361;-61
2022/09/24 16:15:34;;;;;;;1.65;1.10;;;20.50;45.50;;;;;;4919414;28;45580;-61
2022/09/24 16:18:00;;;;;;;1.20;1.05;;;20.50;45.50;;;;;;4918666;28;47258;-61
2022/09/24 16:20:25;;;;;;;1.15;1.05;;;20.50;45.60;;;;;;4918672;28;45468;-62